Time;durP1;ratioP1;P1;durP2;ratioP2;P2;SDS_P1;SDS_P2;PMS_P1;PMS_P2;Temp;Humidity;BMP_temperature;BMP_pressure;BME280_temperature;BME280_humidity;BME280_pressure;Samples;Min_cycle;Max_cycle;Signal;HPM_P1;HPM_P2
2021/12/03 00:01:12;;;;;;;3.45;3.22;;;0.70;99.90;;;;;;482431;246;27421;-74
2021/12/03 00:03:13;;;;;;;6.03;3.95;;;0.70;99.90;;;;;;482469;246;27392;-74
2021/12/03 00:05:14;;;;;;;4.50;4.10;;;0.70;99.90;;;;;;482432;246;27437;-74
2021/12/03 00:07:16;;;;;;;4.75;4.35;;;0.70;99.90;;;;;;482431;244;27418;-74
2021/12/03 00:09:17;;;;;;;4.45;3.78;;;0.80;99.90;;;;;;482450;246;27476;-74
2021/12/03 00:11:18;;;;;;;5.30;4.85;;;0.80;99.90;;;;;;482414;245;27429;-74
2021/12/03 00:13:20;;;;;;;4.50;4.10;;;0.70;99.90;;;;;;482523;246;27453;-74
2021/12/03 00:15:23;;;;;;;4.87;4.45;;;0.70;99.90;;;;;;482456;246;27437;-73
2021/12/03 00:17:22;;;;;;;5.03;4.60;;;0.70;99.90;;;;;;482332;246;27401;-74
2021/12/03 00:19:23;;;;;;;5.32;4.53;;;0.70;99.90;;;;;;482435;246;27444;-74
2021/12/03 00:21:26;;;;;;;4.60;4.20;;;0.70;99.90;;;;;;482462;246;28008;-74
2021/12/03 00:23:27;;;;;;;4.72;4.22;;;0.70;99.90;;;;;;482440;246;27397;-74
2021/12/03 00:25:27;;;;;;;6.30;4.68;;;0.70;99.90;;;;;;482371;246;27440;-74
2021/12/03 00:27:28;;;;;;;4.25;3.85;;;0.70;99.90;;;;;;482457;246;27559;-73
2021/12/03 00:29:29;;;;;;;4.32;3.97;;;0.70;99.90;;;;;;482448;246;27422;-74
2021/12/03 00:31:31;;;;;;;4.43;4.03;;;0.70;99.90;;;;;;482475;246;27432;-74
2021/12/03 00:33:32;;;;;;;4.78;3.92;;;0.70;99.90;;;;;;482459;246;27417;-74
2021/12/03 00:35:33;;;;;;;4.20;3.80;;;0.70;99.90;;;;;;482451;246;27473;-74
2021/12/03 00:37:35;;;;;;;5.18;3.65;;;0.70;99.90;;;;;;482452;246;27408;-73
2021/12/03 00:39:36;;;;;;;6.40;3.62;;;0.70;99.90;;;;;;482492;246;27402;-74
2021/12/03 00:41:45;;;;;;;4.32;3.95;;;0.70;99.90;;;;;;482481;245;27442;-74
2021/12/03 00:43:45;;;;;;;5.95;4.53;;;0.70;99.90;;;;;;481781;246;27836;-73
2021/12/03 00:45:42;;;;;;;4.85;4.35;;;0.70;99.90;;;;;;482036;246;27949;-74
2021/12/03 00:47:41;;;;;;;3.80;3.50;;;0.70;99.90;;;;;;482254;246;28741;-74
2021/12/03 00:49:42;;;;;;;4.60;4.03;;;0.60;99.90;;;;;;482467;246;27480;-74
2021/12/03 00:51:43;;;;;;;5.82;4.22;;;0.50;99.90;;;;;;482461;246;27425;-74
2021/12/03 00:53:44;;;;;;;5.68;4.30;;;0.40;99.90;;;;;;482446;246;27431;-74
2021/12/03 00:55:46;;;;;;;4.75;4.20;;;0.30;99.90;;;;;;482456;246;27412;-73
2021/12/03 00:57:47;;;;;;;6.40;4.55;;;0.30;99.90;;;;;;482450;246;27500;-73
2021/12/03 00:59:48;;;;;;;4.80;4.30;;;0.20;99.90;;;;;;482467;246;27460;-74
2021/12/03 01:01:49;;;;;;;5.28;4.72;;;0.20;99.90;;;;;;482435;246;27473;-74
2021/12/03 01:03:51;;;;;;;5.47;4.40;;;0.10;99.90;;;;;;482464;246;27430;-74
2021/12/03 01:05:52;;;;;;;5.47;4.97;;;0.10;99.90;;;;;;482458;246;27910;-73
2021/12/03 01:07:53;;;;;;;5.10;4.60;;;0.10;99.90;;;;;;482470;246;27526;-74
2021/12/03 01:09:54;;;;;;;5.07;4.57;;;0.00;99.90;;;;;;482456;246;27866;-74
2021/12/03 01:11:56;;;;;;;5.60;5.10;;;0.00;99.90;;;;;;482437;246;28000;-74
2021/12/03 01:14:00;;;;;;;4.75;4.32;;;-0.10;99.90;;;;;;482427;246;28035;-73
2021/12/03 01:15:58;;;;;;;4.37;3.97;;;-0.10;99.90;;;;;;482251;246;27901;-74
2021/12/03 01:17:59;;;;;;;9.50;4.75;;;-0.20;99.90;;;;;;482497;246;27532;-74
2021/12/03 01:20:04;;;;;;;6.03;4.25;;;-0.20;99.90;;;;;;482457;246;27493;-74
2021/12/03 01:22:02;;;;;;;5.32;4.50;;;-0.20;99.90;;;;;;482243;246;27430;-73
2021/12/03 01:24:03;;;;;;;6.30;4.95;;;-0.30;99.90;;;;;;482465;246;27394;-73
2021/12/03 01:26:05;;;;;;;4.78;4.35;;;-0.30;99.90;;;;;;482463;246;27418;-73
2021/12/03 01:28:06;;;;;;;5.90;4.97;;;-0.30;99.90;;;;;;482479;246;27445;-74
2021/12/03 01:30:07;;;;;;;6.35;4.22;;;-0.30;99.90;;;;;;482456;246;27437;-73
2021/12/03 01:32:08;;;;;;;6.30;4.87;;;-0.40;99.90;;;;;;482425;246;27921;-74
2021/12/03 01:34:10;;;;;;;6.62;4.60;;;-0.40;99.90;;;;;;482406;246;28595;-73
2021/12/03 01:36:11;;;;;;;4.93;4.25;;;-0.40;99.90;;;;;;482461;246;27496;-74
2021/12/03 01:38:12;;;;;;;5.30;4.30;;;-0.40;99.90;;;;;;482475;246;27432;-74
2021/12/03 01:40:13;;;;;;;6.53;5.37;;;-0.50;99.90;;;;;;482459;246;27489;-74
2021/12/03 01:42:15;;;;;;;6.55;5.45;;;-0.50;99.90;;;;;;482470;246;27440;-73
2021/12/03 01:44:16;;;;;;;7.70;5.50;;;-0.60;99.90;;;;;;482410;246;27433;-74
2021/12/03 01:46:20;;;;;;;5.60;5.00;;;-0.60;99.90;;;;;;482421;246;27615;-74
2021/12/03 01:48:18;;;;;;;7.60;5.40;;;-0.60;99.90;;;;;;482294;246;27469;-74
2021/12/03 01:50:20;;;;;;;6.62;5.32;;;-0.60;99.90;;;;;;482453;246;27805;-73
2021/12/03 01:52:21;;;;;;;7.07;5.57;;;-0.60;99.90;;;;;;482461;246;27901;-74
2021/12/03 01:54:22;;;;;;;9.73;5.40;;;-0.70;99.90;;;;;;482475;246;28990;-74
2021/12/03 01:56:23;;;;;;;9.60;4.80;;;-0.60;99.90;;;;;;482464;246;27414;-73
2021/12/03 01:58:25;;;;;;;9.68;5.20;;;-0.70;99.90;;;;;;482461;246;27524;-74
2021/12/03 02:00:26;;;;;;;6.45;5.20;;;-0.70;99.90;;;;;;482448;246;27406;-73
2021/12/03 02:02:27;;;;;;;6.70;5.15;;;-0.70;99.90;;;;;;482423;246;27448;-74
2021/12/03 02:04:28;;;;;;;6.40;5.28;;;-0.70;99.90;;;;;;482454;246;27440;-73
2021/12/03 02:06:30;;;;;;;8.50;5.90;;;-0.80;99.90;;;;;;482472;246;27429;-73
2021/12/03 02:08:31;;;;;;;7.97;5.62;;;-0.80;99.90;;;;;;482440;246;27467;-73
2021/12/03 02:10:32;;;;;;;6.95;5.22;;;-0.90;99.90;;;;;;482448;246;27932;-73
2021/12/03 02:12:33;;;;;;;7.10;5.75;;;-0.90;99.90;;;;;;482447;246;27949;-73
2021/12/03 02:14:35;;;;;;;6.40;5.28;;;-0.90;99.90;;;;;;482442;244;29053;-74
2021/12/03 02:16:37;;;;;;;7.45;5.25;;;-0.90;99.90;;;;;;482422;246;27393;-73
2021/12/03 02:18:37;;;;;;;6.25;4.93;;;-0.90;99.90;;;;;;482374;246;27438;-73
2021/12/03 02:20:38;;;;;;;7.22;5.35;;;-0.90;99.90;;;;;;482415;246;27536;-73
2021/12/03 02:22:40;;;;;;;6.18;4.68;;;-0.90;99.90;;;;;;482486;246;27410;-73
2021/12/03 02:24:41;;;;;;;7.55;5.28;;;-0.90;99.90;;;;;;482498;246;27372;-74
2021/12/03 02:26:42;;;;;;;7.40;6.15;;;-0.90;99.90;;;;;;482442;246;27509;-73
2021/12/03 02:28:43;;;;;;;8.18;5.82;;;-1.10;99.90;;;;;;482457;246;27442;-74
2021/12/03 02:30:45;;;;;;;7.50;5.82;;;-1.20;99.90;;;;;;482455;246;28340;-73
2021/12/03 02:32:46;;;;;;;8.23;5.75;;;-1.20;99.90;;;;;;482473;246;28956;-73
2021/12/03 02:34:47;;;;;;;8.52;6.32;;;-1.20;99.90;;;;;;482468;246;29127;-73
2021/12/03 02:36:48;;;;;;;9.70;5.78;;;-1.20;99.90;;;;;;482421;246;27437;-74
2021/12/03 02:38:50;;;;;;;7.78;6.00;;;-1.30;99.90;;;;;;482452;246;27468;-73
2021/12/03 02:40:51;;;;;;;8.20;5.25;;;-1.20;99.90;;;;;;482485;246;27452;-74
2021/12/03 02:42:52;;;;;;;7.30;6.00;;;-1.20;99.90;;;;;;482412;246;27421;-73
2021/12/03 02:44:53;;;;;;;7.80;4.90;;;-1.20;99.90;;;;;;482367;246;27436;-74
2021/12/03 02:46:55;;;;;;;8.80;5.37;;;-1.20;99.90;;;;;;482433;246;27198;-73
2021/12/03 02:48:56;;;;;;;6.55;5.68;;;-1.20;99.90;;;;;;482422;246;27449;-73
2021/12/03 02:50:57;;;;;;;7.32;5.40;;;-1.20;99.90;;;;;;482446;246;28038;-78
2021/12/03 02:52:58;;;;;;;9.25;6.05;;;-1.20;99.90;;;;;;482443;246;27859;-73
2021/12/03 02:55:00;;;;;;;7.30;5.75;;;-1.20;99.90;;;;;;482426;246;27543;-74
2021/12/03 02:57:01;;;;;;;6.87;5.70;;;-1.20;99.90;;;;;;482434;246;27216;-74
2021/12/03 02:59:02;;;;;;;7.53;5.30;;;-1.20;99.90;;;;;;482460;246;27400;-73
2021/12/03 03:01:03;;;;;;;7.05;5.62;;;-1.20;99.90;;;;;;482481;246;27445;-73
2021/12/03 03:03:05;;;;;;;8.63;6.25;;;-1.20;99.90;;;;;;482420;246;27505;-74
2021/12/03 03:05:06;;;;;;;7.35;6.10;;;-1.30;99.90;;;;;;482404;246;27326;-73
2021/12/03 03:07:07;;;;;;;9.05;5.97;;;-1.30;99.90;;;;;;482408;246;27532;-73
2021/12/03 03:09:11;;;;;;;9.45;6.05;;;-1.30;99.90;;;;;;482466;246;27650;-74
2021/12/03 03:11:10;;;;;;;7.95;6.50;;;-1.30;99.90;;;;;;482261;246;27907;-74
2021/12/03 03:13:12;;;;;;;7.35;5.65;;;-1.30;99.90;;;;;;482422;246;28956;-74
2021/12/03 03:15:12;;;;;;;8.00;5.82;;;-1.30;99.90;;;;;;482406;246;27445;-74
2021/12/03 03:17:13;;;;;;;11.88;5.62;;;-1.40;99.90;;;;;;482430;246;27307;-73
2021/12/03 03:19:15;;;;;;;7.72;6.32;;;-1.30;99.90;;;;;;482480;246;27491;-74
2021/12/03 03:21:16;;;;;;;9.70;7.00;;;-1.40;99.90;;;;;;482420;246;27514;-74
2021/12/03 03:23:17;;;;;;;8.95;6.40;;;-1.40;99.90;;;;;;482443;246;27469;-73
2021/12/03 03:25:18;;;;;;;9.73;6.47;;;-1.40;99.90;;;;;;482398;246;27204;-74
2021/12/03 03:27:20;;;;;;;9.15;6.60;;;-1.40;99.90;;;;;;482449;246;27520;-74
2021/12/03 03:29:21;;;;;;;9.18;6.35;;;-1.40;99.90;;;;;;482458;246;27870;-74
2021/12/03 03:31:22;;;;;;;8.95;6.47;;;-1.50;99.90;;;;;;482423;246;27979;-73
2021/12/03 03:33:24;;;;;;;10.60;6.43;;;-1.40;99.90;;;;;;482451;246;28938;-73
2021/12/03 03:35:25;;;;;;;9.75;7.00;;;-1.40;99.90;;;;;;482446;246;27564;-74
2021/12/03 03:37:26;;;;;;;8.65;6.50;;;-1.40;99.90;;;;;;482469;246;27438;-73
2021/12/03 03:39:27;;;;;;;14.43;6.87;;;-1.40;99.90;;;;;;482454;246;27346;-73
2021/12/03 03:41:29;;;;;;;9.82;7.25;;;-1.40;99.90;;;;;;482427;246;27457;-74
2021/12/03 03:43:30;;;;;;;8.90;6.47;;;-1.40;99.90;;;;;;482434;246;27286;-74
2021/12/03 03:45:31;;;;;;;9.13;6.07;;;-1.40;99.90;;;;;;482445;246;27292;-73
2021/12/03 03:47:32;;;;;;;7.68;5.57;;;-1.40;99.90;;;;;;482401;246;27920;-73
2021/12/03 03:49:34;;;;;;;7.93;5.70;;;-1.50;99.90;;;;;;482462;246;27959;-74
2021/12/03 03:51:35;;;;;;;7.00;5.40;;;-1.40;99.90;;;;;;482428;246;27884;-74
2021/12/03 03:53:38;;;;;;;8.93;6.18;;;-1.50;99.90;;;;;;482392;246;27393;-73
2021/12/03 03:55:37;;;;;;;7.80;5.72;;;-1.50;99.90;;;;;;482312;246;27203;-73
2021/12/03 03:57:39;;;;;;;8.98;6.10;;;-1.50;99.90;;;;;;482458;246;27471;-74
2021/12/03 03:59:40;;;;;;;9.48;6.20;;;-1.50;99.90;;;;;;482453;246;27166;-74
2021/12/03 04:01:42;;;;;;;7.65;5.97;;;-1.50;99.90;;;;;;482460;246;27110;-73
2021/12/03 04:03:46;;;;;;;11.38;6.45;;;-1.50;99.90;;;;;;482351;246;27537;-73
2021/12/03 04:05:44;;;;;;;8.85;6.25;;;-1.50;99.90;;;;;;482280;246;27386;-73
2021/12/03 04:07:45;;;;;;;7.85;5.47;;;-1.50;99.90;;;;;;482429;246;27905;-73
2021/12/03 04:09:46;;;;;;;6.75;5.62;;;-1.50;99.90;;;;;;482373;246;27649;-73
2021/12/03 04:11:47;;;;;;;9.00;5.95;;;-1.50;99.90;;;;;;482372;246;27500;-73
2021/12/03 04:13:49;;;;;;;9.00;7.25;;;-1.50;99.90;;;;;;482422;246;27405;-74
2021/12/03 04:15:50;;;;;;;8.00;6.70;;;-1.60;99.90;;;;;;482377;246;27191;-73
2021/12/03 04:17:51;;;;;;;11.98;7.28;;;-1.60;99.90;;;;;;482418;246;27085;-73
2021/12/03 04:19:52;;;;;;;8.95;6.25;;;-1.60;99.90;;;;;;482403;246;27107;-73
2021/12/03 04:21:54;;;;;;;11.95;7.60;;;-1.60;99.90;;;;;;482387;246;27438;-73
2021/12/03 04:23:55;;;;;;;7.07;5.95;;;-1.50;99.90;;;;;;482508;246;27370;-74
2021/12/03 04:25:56;;;;;;;8.75;6.70;;;-1.60;99.90;;;;;;482496;246;27795;-73
2021/12/03 04:27:57;;;;;;;6.87;5.97;;;-1.60;99.90;;;;;;482445;246;27913;-73
2021/12/03 04:29:59;;;;;;;11.68;7.53;;;-1.60;99.90;;;;;;482426;246;27858;-74
2021/12/03 04:32:00;;;;;;;7.45;6.60;;;-1.60;99.90;;;;;;482456;246;27385;-74
2021/12/03 04:34:01;;;;;;;9.07;6.65;;;-1.70;99.90;;;;;;482492;246;27432;-73
2021/12/03 04:36:02;;;;;;;8.85;6.50;;;-1.70;99.90;;;;;;482442;246;27422;-74
2021/12/03 04:38:04;;;;;;;8.90;5.75;;;-1.70;99.90;;;;;;482471;246;27350;-73
2021/12/03 04:40:05;;;;;;;7.80;5.82;;;-1.70;99.90;;;;;;482421;246;27367;-73
2021/12/03 04:42:06;;;;;;;9.50;6.70;;;-1.60;99.90;;;;;;482493;246;27368;-74
2021/12/03 04:44:07;;;;;;;8.88;6.37;;;-1.60;99.90;;;;;;482464;246;27325;-73
2021/12/03 04:46:09;;;;;;;8.63;6.57;;;-1.70;99.90;;;;;;482448;246;27653;-73
2021/12/03 04:48:10;;;;;;;10.10;6.70;;;-1.70;99.90;;;;;;482440;246;27717;-74
2021/12/03 04:50:11;;;;;;;9.65;6.10;;;-1.70;99.90;;;;;;482464;246;27575;-73
2021/12/03 04:52:12;;;;;;;10.82;6.30;;;-1.70;99.90;;;;;;482468;246;27281;-73
2021/12/03 04:54:14;;;;;;;6.95;6.15;;;-1.70;99.90;;;;;;482484;246;27381;-74
2021/12/03 04:56:15;;;;;;;8.73;6.50;;;-1.70;99.90;;;;;;482456;246;27371;-73
2021/12/03 04:58:16;;;;;;;8.98;6.65;;;-1.70;99.90;;;;;;482465;246;26993;-73
2021/12/03 05:00:19;;;;;;;7.80;6.10;;;-1.70;99.90;;;;;;482363;246;27032;-73
2021/12/03 05:02:21;;;;;;;8.93;6.50;;;-1.70;99.90;;;;;;482444;246;27237;-74
2021/12/03 05:04:21;;;;;;;8.88;6.28;;;-1.70;99.90;;;;;;482392;246;27189;-73
2021/12/03 05:06:30;;;;;;;8.55;6.55;;;-1.70;99.90;;;;;;482422;246;27487;-74
2021/12/03 05:08:29;;;;;;;9.60;5.75;;;-1.70;99.90;;;;;;482326;246;28045;-73
2021/12/03 05:10:32;;;;;;;8.48;6.47;;;-1.70;99.90;;;;;;482456;244;27529;-73
2021/12/03 05:12:32;;;;;;;8.85;6.62;;;-1.70;99.90;;;;;;482384;246;27125;-74
2021/12/03 05:14:33;;;;;;;9.73;5.90;;;-1.70;99.90;;;;;;482462;245;27168;-73
2021/12/03 05:16:34;;;;;;;8.55;6.05;;;-1.80;99.90;;;;;;482472;246;27319;-73
2021/12/03 05:18:36;;;;;;;8.35;6.03;;;-1.80;99.90;;;;;;482417;246;27436;-73
2021/12/03 05:20:37;;;;;;;9.90;6.43;;;-1.70;99.90;;;;;;482465;246;27087;-73
2021/12/03 05:22:38;;;;;;;10.00;6.60;;;-1.70;99.90;;;;;;482438;246;27365;-73
2021/12/03 05:24:40;;;;;;;7.53;6.40;;;-1.70;99.90;;;;;;482471;246;27428;-73
2021/12/03 05:26:41;;;;;;;8.23;6.18;;;-1.70;99.90;;;;;;482413;246;27608;-73
2021/12/03 05:28:42;;;;;;;9.52;6.75;;;-1.60;99.90;;;;;;482484;246;27868;-74
2021/12/03 05:30:43;;;;;;;8.90;6.65;;;-1.60;99.90;;;;;;482467;246;27747;-73
2021/12/03 05:32:44;;;;;;;8.52;6.55;;;-1.60;99.90;;;;;;482451;246;27463;-74
2021/12/03 05:34:46;;;;;;;8.02;6.30;;;-1.60;99.90;;;;;;482459;246;27412;-73
2021/12/03 05:36:47;;;;;;;9.05;6.45;;;-1.60;99.90;;;;;;482476;246;27445;-74
2021/12/03 05:38:48;;;;;;;10.85;7.65;;;-1.70;99.90;;;;;;482509;246;27403;-74
2021/12/03 05:40:49;;;;;;;11.35;6.85;;;-1.70;99.90;;;;;;482484;246;27257;-74
2021/12/03 05:42:51;;;;;;;9.55;6.57;;;-1.70;99.90;;;;;;482409;246;27405;-73
2021/12/03 05:44:53;;;;;;;10.32;6.47;;;-1.70;99.90;;;;;;482436;246;27880;-73
2021/12/03 05:46:53;;;;;;;8.95;6.55;;;-1.70;99.90;;;;;;482386;246;27931;-73
2021/12/03 05:48:54;;;;;;;10.57;7.40;;;-1.60;99.90;;;;;;482453;246;27693;-75
2021/12/03 05:50:56;;;;;;;9.40;6.80;;;-1.60;99.90;;;;;;482421;246;27179;-73
2021/12/03 05:52:57;;;;;;;9.32;7.03;;;-1.60;99.90;;;;;;482449;246;27322;-73
2021/12/03 05:54:58;;;;;;;9.13;7.15;;;-1.60;99.90;;;;;;482428;246;27338;-73
2021/12/03 05:56:59;;;;;;;8.38;6.90;;;-1.60;99.90;;;;;;482468;246;27465;-73
2021/12/03 05:59:01;;;;;;;10.90;7.55;;;-1.60;99.90;;;;;;482462;246;27348;-73
2021/12/03 06:01:02;;;;;;;9.05;6.90;;;-1.60;99.90;;;;;;482442;246;27278;-74
2021/12/03 06:03:04;;;;;;;9.10;5.75;;;-1.60;99.90;;;;;;482450;246;27710;-74
2021/12/03 06:05:05;;;;;;;11.63;6.93;;;-1.60;99.90;;;;;;482436;246;28569;-73
2021/12/03 06:07:06;;;;;;;10.32;6.95;;;-1.50;99.90;;;;;;482426;246;27794;-74
2021/12/03 06:09:07;;;;;;;10.48;7.37;;;-1.40;99.90;;;;;;482342;246;27370;-74
2021/12/03 06:11:08;;;;;;;10.48;6.82;;;-1.30;99.90;;;;;;482284;246;27329;-73
2021/12/03 06:13:10;;;;;;;9.70;6.78;;;-1.30;99.90;;;;;;482189;246;27238;-73
2021/12/03 06:15:11;;;;;;;8.90;6.45;;;-1.20;99.90;;;;;;482215;246;27481;-74
2021/12/03 06:17:13;;;;;;;9.02;6.62;;;-1.10;99.90;;;;;;482287;246;27386;-74
2021/12/03 06:19:13;;;;;;;11.80;7.80;;;-1.00;99.90;;;;;;482401;246;27491;-74
2021/12/03 06:21:15;;;;;;;11.60;7.18;;;-1.00;99.90;;;;;;482411;246;27873;-73
2021/12/03 06:23:17;;;;;;;7.05;6.10;;;-0.90;99.90;;;;;;482444;246;27852;-74
2021/12/03 06:25:17;;;;;;;8.57;6.95;;;-0.90;99.90;;;;;;482383;246;27456;-74
2021/12/03 06:27:18;;;;;;;11.20;7.00;;;-0.80;99.90;;;;;;482459;246;27283;-74
2021/12/03 06:29:20;;;;;;;9.77;7.45;;;-0.80;99.90;;;;;;482436;246;27448;-74
2021/12/03 06:31:21;;;;;;;9.80;6.87;;;-0.80;99.90;;;;;;482449;246;27420;-74
2021/12/03 06:33:22;;;;;;;14.38;7.70;;;-0.80;99.90;;;;;;482469;246;27418;-74
2021/12/03 06:35:23;;;;;;;9.45;7.82;;;-0.70;99.90;;;;;;482449;246;27520;-74
2021/12/03 06:37:25;;;;;;;11.82;7.82;;;-0.70;99.90;;;;;;482375;246;27406;-74
2021/12/03 06:39:26;;;;;;;10.82;7.43;;;-0.70;99.90;;;;;;482466;246;27916;-74
2021/12/03 06:41:27;;;;;;;12.05;7.22;;;-0.70;99.90;;;;;;482456;246;27872;-74
2021/12/03 06:43:28;;;;;;;10.15;7.50;;;-0.70;99.90;;;;;;482479;246;27402;-73
2021/12/03 06:45:30;;;;;;;13.68;7.75;;;-0.70;99.90;;;;;;482457;246;27544;-74
2021/12/03 06:47:31;;;;;;;11.20;7.65;;;-0.70;99.90;;;;;;482435;246;27481;-73
2021/12/03 06:49:33;;;;;;;9.73;7.45;;;-0.60;99.90;;;;;;482434;246;27542;-74
2021/12/03 06:51:40;;;;;;;10.35;7.80;;;-0.60;99.90;;;;;;482373;246;27836;-74
2021/12/03 06:53:42;;;;;;;11.23;7.12;;;-0.60;99.90;;;;;;481938;246;27957;-74
2021/12/03 06:55:58;;;;;;;10.40;6.72;;;-0.60;99.90;;;;;;482030;246;27965;-74
2021/12/03 06:57:42;;;;;;;10.77;7.25;;;-0.60;99.90;;;;;;481784;246;27509;-74
2021/12/03 06:59:41;;;;;;;12.27;6.97;;;-0.60;99.90;;;;;;482270;246;27499;-73
2021/12/03 07:01:43;;;;;;;12.25;7.22;;;-0.50;99.90;;;;;;482436;246;27853;-73
2021/12/03 07:03:44;;;;;;;9.88;7.00;;;-0.50;99.90;;;;;;482488;246;27908;-73
2021/12/03 07:05:45;;;;;;;8.07;7.20;;;-0.50;99.90;;;;;;482425;246;27421;-73
2021/12/03 07:07:47;;;;;;;9.45;7.82;;;-0.50;99.90;;;;;;482448;246;27511;-73
2021/12/03 07:09:48;;;;;;;10.00;7.55;;;-0.40;99.90;;;;;;482387;244;27541;-73
2021/12/03 07:11:49;;;;;;;10.27;8.20;;;-0.40;99.90;;;;;;482445;246;27402;-74
2021/12/03 07:13:50;;;;;;;10.23;7.70;;;-0.40;99.90;;;;;;482464;246;27468;-74
2021/12/03 07:15:51;;;;;;;13.45;7.93;;;-0.40;99.90;;;;;;482418;246;27405;-73
2021/12/03 07:17:53;;;;;;;8.63;7.10;;;-0.30;99.90;;;;;;482446;246;27953;-74
2021/12/03 07:19:57;;;;;;;8.63;6.95;;;-0.30;99.90;;;;;;482393;246;28003;-73
2021/12/03 07:21:55;;;;;;;14.02;7.72;;;-0.30;99.90;;;;;;482258;246;27875;-74
2021/12/03 07:23:56;;;;;;;9.30;7.32;;;-0.30;99.90;;;;;;482446;246;27544;-74
2021/12/03 07:25:59;;;;;;;10.45;6.80;;;-0.30;99.90;;;;;;482423;246;27535;-74
2021/12/03 07:27:59;;;;;;;9.43;7.07;;;-0.30;99.90;;;;;;482374;246;27453;-73
2021/12/03 07:30:00;;;;;;;10.57;6.70;;;-0.20;99.90;;;;;;482478;246;27438;-74
2021/12/03 07:32:01;;;;;;;10.32;7.50;;;-0.20;99.90;;;;;;482407;246;27417;-73
2021/12/03 07:34:03;;;;;;;10.65;8.15;;;-0.20;99.90;;;;;;482426;246;27476;-73
2021/12/03 07:36:05;;;;;;;10.77;7.28;;;-0.20;99.90;;;;;;482407;246;27992;-74
2021/12/03 07:38:05;;;;;;;11.98;8.93;;;-0.20;99.90;;;;;;482336;246;28988;-74
2021/12/03 07:40:06;;;;;;;9.70;7.65;;;-0.20;99.90;;;;;;482449;246;27459;-73
2021/12/03 07:42:08;;;;;;;12.88;9.20;;;-0.10;99.90;;;;;;482441;246;27442;-73
2021/12/03 07:44:09;;;;;;;9.73;8.80;;;-0.10;99.90;;;;;;482434;246;27520;-74
2021/12/03 07:46:10;;;;;;;9.95;8.95;;;-0.10;99.90;;;;;;482392;246;27500;-74
2021/12/03 07:48:11;;;;;;;13.02;8.95;;;-0.10;99.90;;;;;;482418;246;27530;-74
2021/12/03 07:50:13;;;;;;;13.07;9.25;;;-0.10;99.90;;;;;;482421;246;27472;-74
2021/12/03 07:52:15;;;;;;;11.90;10.10;;;-0.10;99.90;;;;;;482422;246;27866;-73
2021/12/03 07:54:15;;;;;;;10.27;9.10;;;-0.10;99.90;;;;;;482345;244;29030;-73
2021/12/03 07:56:16;;;;;;;12.27;9.20;;;-0.10;99.90;;;;;;482411;246;27390;-73
2021/12/03 07:58:18;;;;;;;11.00;8.77;;;-0.10;99.90;;;;;;482442;246;27453;-74
2021/12/03 08:00:19;;;;;;;12.77;8.05;;;-0.10;99.90;;;;;;482427;246;27446;-74
2021/12/03 08:02:20;;;;;;;8.07;6.97;;;-0.10;99.90;;;;;;482436;246;27412;-74
2021/12/03 08:04:22;;;;;;;12.48;7.80;;;-0.20;99.90;;;;;;482420;246;27481;-74
2021/12/03 08:06:23;;;;;;;10.70;7.93;;;-0.10;99.90;;;;;;482457;246;27895;-74
2021/12/03 08:08:26;;;;;;;9.77;6.90;;;-0.10;99.90;;;;;;482449;246;27857;-73
2021/12/03 08:10:25;;;;;;;10.95;7.22;;;-0.20;99.90;;;;;;482270;246;29027;-74
2021/12/03 08:12:27;;;;;;;10.98;6.90;;;-0.10;99.90;;;;;;482441;246;27406;-74
2021/12/03 08:14:28;;;;;;;6.68;5.97;;;-0.10;99.90;;;;;;482398;246;27441;-74
2021/12/03 08:16:30;;;;;;;10.25;6.78;;;-0.10;99.90;;;;;;482437;246;27449;-75
2021/12/03 08:18:31;;;;;;;8.75;6.95;;;-0.10;99.90;;;;;;482411;246;27534;-74
2021/12/03 08:20:33;;;;;;;9.18;7.00;;;-0.20;99.90;;;;;;482421;246;27930;-73
2021/12/03 08:22:34;;;;;;;9.70;7.45;;;-0.10;99.90;;;;;;482408;246;27925;-73
2021/12/03 08:24:35;;;;;;;11.90;7.20;;;-0.10;99.90;;;;;;482449;246;29133;-74
2021/12/03 08:26:36;;;;;;;9.73;7.43;;;-0.10;99.90;;;;;;482418;246;27413;-74
2021/12/03 08:28:38;;;;;;;7.55;6.28;;;0.00;99.90;;;;;;482423;246;27480;-74
2021/12/03 08:30:39;;;;;;;8.70;6.55;;;0.00;99.90;;;;;;482399;246;27466;-73
2021/12/03 08:32:42;;;;;;;12.55;7.95;;;0.00;99.90;;;;;;482411;244;27480;-74
2021/12/03 08:34:41;;;;;;;10.77;7.87;;;-0.10;99.90;;;;;;482280;246;27461;-74
2021/12/03 08:36:43;;;;;;;11.73;8.95;;;-0.10;99.90;;;;;;482387;246;27409;-73
2021/12/03 08:38:44;;;;;;;9.13;8.13;;;-0.10;99.90;;;;;;482425;246;27486;-74
2021/12/03 08:40:45;;;;;;;8.93;7.82;;;0.00;99.90;;;;;;482388;246;27858;-74
2021/12/03 08:42:47;;;;;;;8.77;7.22;;;-0.10;99.90;;;;;;482383;246;27878;-73
2021/12/03 08:44:48;;;;;;;12.73;8.65;;;0.00;99.90;;;;;;482464;246;29065;-74
2021/12/03 08:46:56;;;;;;;11.70;7.40;;;-0.10;99.90;;;;;;482415;246;27456;-73
2021/12/03 08:48:51;;;;;;;13.30;11.90;;;-0.10;99.90;;;;;;481917;246;27492;-75
2021/12/03 08:51:04;;;;;;;13.95;12.45;;;-0.10;99.90;;;;;;482420;246;27429;-74
2021/12/03 08:53:09;;;;;;;14.45;11.73;;;-0.10;99.90;;;;;;481483;246;27424;-74
2021/12/03 08:54:57;;;;;;;13.75;10.63;;;-0.10;99.90;;;;;;481232;246;27460;-74
2021/12/03 08:56:55;;;;;;;11.02;8.65;;;-0.10;99.90;;;;;;482414;246;27862;-73
2021/12/03 08:58:57;;;;;;;9.93;7.75;;;-0.10;99.90;;;;;;482483;246;27919;-74
2021/12/03 09:00:58;;;;;;;10.15;7.70;;;-0.10;99.90;;;;;;482477;244;27448;-74
2021/12/03 09:02:59;;;;;;;10.15;7.57;;;-0.10;99.90;;;;;;482446;246;27404;-73
2021/12/03 09:05:00;;;;;;;10.52;6.47;;;-0.10;99.90;;;;;;482475;246;27464;-74
2021/12/03 09:07:02;;;;;;;9.43;7.12;;;-0.10;99.90;;;;;;482447;246;27404;-74
2021/12/03 09:09:03;;;;;;;10.10;6.80;;;-0.10;99.90;;;;;;482422;246;27426;-74
2021/12/03 09:11:05;;;;;;;9.20;6.20;;;-0.10;99.90;;;;;;482310;246;27538;-74
2021/12/03 09:13:06;;;;;;;8.88;5.78;;;-0.10;99.90;;;;;;482388;246;27941;-74
2021/12/03 09:15:19;;;;;;;8.48;6.20;;;-0.10;99.90;;;;;;482471;246;27960;-74
2021/12/03 09:17:28;;;;;;;10.15;5.90;;;0.00;99.90;;;;;;482007;246;28981;-73
2021/12/03 09:19:24;;;;;;;11.43;7.07;;;0.00;99.90;;;;;;481610;246;27428;-73
2021/12/03 09:21:33;;;;;;;10.65;7.22;;;0.10;99.90;;;;;;481990;246;27940;-74
2021/12/03 09:25:34;;;;;;;9.85;7.10;;;0.10;99.90;;;;;;482477;246;27445;-74
2021/12/03 09:27:26;;;;;;;9.73;7.12;;;0.10;99.90;;;;;;481850;246;27406;-74
2021/12/03 09:29:31;;;;;;;6.85;5.78;;;0.10;99.90;;;;;;482390;246;27452;-73
2021/12/03 09:31:28;;;;;;;6.50;5.35;;;0.20;99.90;;;;;;482235;245;27547;-74
2021/12/03 09:33:31;;;;;;;10.45;7.62;;;0.20;99.90;;;;;;482398;246;27448;-73
2021/12/03 09:35:31;;;;;;;14.95;8.75;;;0.10;99.90;;;;;;482321;246;27440;-74
2021/12/03 09:37:32;;;;;;;13.20;8.70;;;0.00;99.90;;;;;;482460;246;27500;-74
2021/12/03 09:39:34;;;;;;;12.50;9.35;;;0.10;99.90;;;;;;482439;246;27452;-73
2021/12/03 09:41:34;;;;;;;12.20;9.05;;;0.10;99.90;;;;;;482376;246;28099;-73
2021/12/03 09:43:36;;;;;;;16.02;9.10;;;0.10;99.90;;;;;;482461;246;27961;-74
2021/12/03 09:45:38;;;;;;;12.55;9.07;;;0.10;99.90;;;;;;482469;246;27868;-74
2021/12/03 09:47:38;;;;;;;14.43;9.02;;;0.20;99.90;;;;;;482427;246;27527;-74
2021/12/03 09:49:40;;;;;;;14.93;10.10;;;0.10;99.90;;;;;;482426;246;27529;-73
2021/12/03 09:51:49;;;;;;;18.55;9.07;;;0.10;99.90;;;;;;482411;246;27501;-74
2021/12/03 09:55:46;;;;;;;12.65;8.00;;;0.10;99.90;;;;;;480584;245;27424;-74
2021/12/03 09:58:16;;;;;;;13.52;8.43;;;0.10;99.90;;;;;;482441;246;27515;-74
2021/12/03 10:00:32;;;;;;;14.45;8.40;;;0.00;99.90;;;;;;481697;246;27444;-74
2021/12/03 10:10:03;;;;;;;13.30;9.18;;;0.20;99.90;;;;;;482436;246;27477;-74
2021/12/03 10:11:42;;;;;;;15.23;8.50;;;0.20;99.90;;;;;;480923;246;27904;-74
2021/12/03 10:13:20;;;;;;;13.07;8.13;;;0.30;99.90;;;;;;480841;246;28709;-74
2021/12/03 10:15:30;;;;;;;10.88;7.85;;;0.30;99.90;;;;;;482294;246;27912;-74
2021/12/03 10:17:43;;;;;;;16.95;8.50;;;0.30;99.90;;;;;;482102;246;27492;-74
2021/12/03 10:19:40;;;;;;;9.88;7.25;;;0.30;99.90;;;;;;482133;246;27396;-74
2021/12/03 10:24:26;;;;;;;14.18;8.57;;;0.20;99.90;;;;;;482424;246;27404;-73
2021/12/03 10:28:37;;;;;;;10.82;7.72;;;0.20;99.90;;;;;;482424;246;27444;-74
2021/12/03 10:30:32;;;;;;;15.95;9.30;;;0.20;99.90;;;;;;481020;246;27436;-74
2021/12/03 10:32:52;;;;;;;11.90;7.97;;;0.10;99.90;;;;;;481742;246;27572;-74
2021/12/03 10:34:53;;;;;;;14.82;8.73;;;0.10;99.90;;;;;;481413;246;27528;-74
2021/12/03 10:41:08;;;;;;;11.25;8.30;;;0.20;99.90;;;;;;482429;246;27445;-73
2021/12/03 10:43:08;;;;;;;12.95;8.30;;;0.20;99.90;;;;;;481263;246;27425;-73
2021/12/03 10:45:07;;;;;;;10.90;8.05;;;0.20;99.90;;;;;;481403;246;27469;-74
2021/12/03 10:49:23;;;;;;;14.45;10.30;;;0.20;99.90;;;;;;482427;246;28003;-73
2021/12/03 10:51:15;;;;;;;13.93;9.32;;;0.20;99.90;;;;;;481506;246;27549;-75
2021/12/03 10:58:13;;;;;;;12.27;9.10;;;0.30;99.90;;;;;;482424;246;27412;-74